Time;durP1;ratioP1;P1;durP2;ratioP2;P2;SDS_P1;SDS_P2;PMS_P1;PMS_P2;Temp;Humidity;BMP_temperature;BMP_pressure;BME280_temperature;BME280_humidity;BME280_pressure;Samples;Min_cycle;Max_cycle;Signal;HPM_P1;HPM_P2
2024/03/27 00:00:17;;;;;;;22.10;14.80;;;;;;;-147.86;100.00;32975.31;105888;1258;72612;-45
2024/03/27 00:02:44;;;;;;;22.60;16.20;;;;;;;-147.86;100.00;32959.70;105856;1254;61914;-45
2024/03/27 00:05:10;;;;;;;27.30;16.20;;;;;;;-147.86;100.00;33016.31;105408;1254;420171;-46
2024/03/27 00:10:49;;;;;;;26.80;14.90;;;;;;;-147.86;100.00;16300.02;104154;1271;615465;-44
2024/03/27 00:13:16;;;;;;;22.50;15.20;;;;;;;-147.86;100.00;-2928.47;105044;1268;61914;-44
2024/03/27 00:15:50;;;;;;;21.20;14.80;;;;;;;-147.86;100.00;2831.51;105065;1268;59625;-46
2024/03/27 00:18:18;;;;;;;24.20;15.10;;;;;;;-147.86;100.00;9055.06;105023;1269;72043;-46
2024/03/27 00:20:45;;;;;;;25.30;16.00;;;;;;;-147.86;100.00;14054.77;104954;1268;65463;-46
2024/03/27 00:23:15;;;;;;;24.40;16.60;;;;;;;-147.86;100.00;17735.63;104635;1263;278774;-45
2024/03/27 00:25:42;;;;;;;24.50;16.40;;;;;;;-147.86;100.00;20308.27;105605;1258;61048;-47
2024/03/27 00:28:09;;;;;;;28.80;17.10;;;;;;;-147.86;100.00;22696.67;105646;1258;60274;-46
2024/03/27 00:30:36;;;;;;;23.60;16.40;;;;;;;-147.86;100.00;24045.46;105635;1258;71597;-47
2024/03/27 00:33:06;;;;;;;25.30;16.20;;;;;;;-147.86;100.00;25311.88;105615;1259;64512;-47
2024/03/27 00:35:33;;;;;;;26.00;16.40;;;;;;;-147.86;100.00;25838.71;105644;1259;73099;-46
2024/03/27 00:38:00;;;;;;;25.90;16.60;;;;;;;-147.86;100.00;26827.59;105616;1258;61915;-46
2024/03/27 00:40:27;;;;;;;26.10;16.80;;;;;;;-147.86;100.00;27494.02;105628;1257;60601;-47
2024/03/27 00:42:55;;;;;;;28.20;16.80;;;;;;;-147.86;100.00;28017.79;105627;1259;72661;-46
2024/03/27 00:45:22;;;;;;;25.40;16.80;;;;;;;-147.86;100.00;28169.64;105637;1259;64577;-47
2024/03/27 00:47:49;;;;;;;30.00;17.70;;;;;;;-147.86;100.00;28665.32;105624;1258;72523;-46
2024/03/27 00:50:15;;;;;;;24.10;17.20;;;;;;;-147.86;100.00;28916.57;105612;1259;61812;-47
2024/03/27 00:52:42;;;;;;;23.60;17.10;;;;;;;-147.86;100.00;29190.86;105616;1257;60155;-46
2024/03/27 00:55:09;;;;;;;31.50;17.80;;;;;;;-147.86;100.00;29502.23;105658;1257;73965;-45
2024/03/27 00:57:36;;;;;;;26.00;17.40;;;;;;;-147.86;100.00;29732.44;105677;1258;64729;-46
2024/03/27 01:00:03;;;;;;;26.90;16.90;;;;;;;-147.86;100.00;29921.32;105577;1257;72941;-46
2024/03/27 01:02:30;;;;;;;24.80;17.10;;;;;;;-147.86;100.00;30080.60;105636;1260;60478;-47
2024/03/27 01:04:57;;;;;;;26.90;17.30;;;;;;;-147.86;100.00;30327.20;105594;1255;60444;-45
2024/03/27 01:07:24;;;;;;;26.30;17.70;;;;;;;-147.86;100.00;30448.58;105693;1258;73589;-45
2024/03/27 01:09:51;;;;;;;27.60;16.80;;;;;;;-147.86;100.00;30472.00;105609;1259;65548;-46
2024/03/27 01:12:18;;;;;;;25.20;17.20;;;;;;;-147.86;100.00;30509.10;105665;1256;72546;-46
2024/03/27 01:14:44;;;;;;;28.20;17.60;;;;;;;-147.86;100.00;30483.74;105633;1259;60411;-45
2024/03/27 01:17:11;;;;;;;28.80;17.30;;;;;;;-147.86;100.00;30506.77;105635;1255;60434;-45
2024/03/27 01:19:38;;;;;;;28.30;18.50;;;;;;;-147.86;100.00;30463.86;105639;1258;73730;-45
2024/03/27 01:22:04;;;;;;;24.70;17.20;;;;;;;-147.86;100.00;30507.55;105577;1259;64677;-46
2024/03/27 01:24:31;;;;;;;28.80;17.00;;;;;;;-147.86;100.00;30399.08;105674;1259;72388;-46
2024/03/27 01:26:59;;;;;;;30.10;17.30;;;;;;;-147.86;100.00;30232.89;105622;1256;61787;-45
2024/03/27 01:29:27;;;;;;;26.80;16.90;;;;;;;-147.86;100.00;30063.53;105662;1256;60569;-45
2024/03/27 01:31:54;;;;;;;27.20;16.80;;;;;;;-147.86;100.00;29990.10;105660;1259;73822;-45
2024/03/27 01:34:20;;;;;;;24.00;17.00;;;;;;;-147.86;100.00;29795.44;105593;1257;64254;-45
2024/03/27 01:36:48;;;;;;;26.50;16.90;;;;;;;-147.86;100.00;29654.16;105659;1260;72549;-45
2024/03/27 01:39:15;;;;;;;24.30;16.30;;;;;;;-147.86;100.00;29395.57;105647;1259;61658;-46
2024/03/27 01:41:42;;;;;;;24.20;16.90;;;;;;;-147.86;100.00;29439.97;105570;1255;60438;-45
2024/03/27 01:44:20;;;;;;;27.30;17.40;;;;;;;-147.86;100.00;29207.49;105615;1259;73673;-47
2024/03/27 01:46:48;;;;;;;28.90;18.80;;;;;;;-147.86;100.00;27903.01;105691;1259;65411;-47
2024/03/27 01:49:15;;;;;;;24.80;17.30;;;;;;;-147.86;100.00;28872.78;105621;1258;72318;-46
2024/03/27 01:51:42;;;;;;;29.30;17.50;;;;;;;-147.86;100.00;28890.34;105653;1259;61018;-47
2024/03/27 01:54:13;;;;;;;24.70;16.60;;;;;;;-147.86;100.00;28956.60;105592;1257;60434;-46
2024/03/27 01:56:39;;;;;;;28.10;17.40;;;;;;;-147.86;100.00;28357.83;105584;1259;73718;-46
2024/03/27 01:59:06;;;;;;;33.90;17.70;;;;;;;-147.86;100.00;28836.43;105624;1257;64493;-46
2024/03/27 02:01:33;;;;;;;30.90;17.40;;;;;;;-147.86;100.00;28458.79;105635;1259;72365;-45
2024/03/27 02:04:01;;;;;;;29.10;19.10;;;;;;;-147.86;100.00;28149.11;105600;1260;61917;-46
2024/03/27 02:06:28;;;;;;;28.80;17.80;;;;;;;-147.86;100.00;27729.08;105632;1255;60531;-46
2024/03/27 02:08:54;;;;;;;27.40;16.50;;;;;;;-147.86;100.00;27512.53;105620;1258;73822;-48
2024/03/27 02:11:22;;;;;;;29.40;17.90;;;;;;;-147.86;100.00;27117.47;105637;1261;65436;-47
2024/03/27 02:13:48;;;;;;;23.90;16.60;;;;;;;-147.86;100.00;26810.64;105625;1257;72571;-46
2024/03/27 02:16:15;;;;;;;28.70;18.60;;;;;;;-147.86;100.00;26670.22;105559;1259;60335;-46
2024/03/27 02:18:42;;;;;;;33.30;18.30;;;;;;;-147.86;100.00;26497.88;105623;1257;60439;-47
2024/03/27 02:21:10;;;;;;;29.30;18.60;;;;;;;-147.86;100.00;26308.36;105627;1259;73631;-46
2024/03/27 02:23:51;;;;;;;30.10;18.90;;;;;;;-147.86;100.00;25916.29;105629;1257;64567;-46
2024/03/27 02:26:26;;;;;;;25.10;17.20;;;;;;;-147.86;100.00;24379.05;105664;1257;72695;-46
2024/03/27 02:28:53;;;;;;;28.40;18.30;;;;;;;-147.86;100.00;24630.95;105603;1259;60498;-45
2024/03/27 02:31:20;;;;;;;26.70;17.30;;;;;;;-147.86;100.00;25198.55;105642;1258;60425;-46
2024/03/27 02:33:47;;;;;;;29.10;17.40;;;;;;;-147.86;100.00;25172.01;105645;1259;73841;-47
2024/03/27 02:36:14;;;;;;;27.10;17.60;;;;;;;-147.86;100.00;25194.24;105647;1257;65198;-45
2024/03/27 02:38:41;;;;;;;22.90;16.20;;;;;;;-147.86;100.00;25316.23;105598;1261;72706;-46
2024/03/27 02:41:07;;;;;;;27.60;17.40;;;;;;;-147.86;100.00;25424.61;105591;1257;61251;-45
2024/03/27 02:43:35;;;;;;;27.50;17.30;;;;;;;-147.86;100.00;25332.21;105620;1256;60444;-45
2024/03/27 02:46:02;;;;;;;27.10;18.40;;;;;;;-147.86;100.00;25095.22;105622;1259;73859;-46
2024/03/27 02:48:29;;;;;;;30.40;18.60;;;;;;;-147.86;100.00;25166.63;105587;1269;64432;-47
2024/03/27 02:50:57;;;;;;;29.50;17.80;;;;;;;-147.86;100.00;25488.66;105616;1259;72654;-45
2024/03/27 02:53:23;;;;;;;26.00;17.30;;;;;;;-147.86;100.00;25818.35;105649;1259;61871;-47
2024/03/27 02:55:51;;;;;;;26.80;17.20;;;;;;;-147.86;100.00;25933.41;105644;1257;60490;-46
2024/03/27 03:11:12;;;;;;;23.20;16.10;;;;;;;-147.86;100.00;21379.65;103339;1285;615704;-45
2024/03/27 03:13:43;;;;;;;24.40;15.40;;;;;;;-147.86;100.00;3569.85;104908;1263;132727;-51
2024/03/27 03:16:10;;;;;;;21.20;15.30;;;;;;;-147.86;100.00;5122.88;105217;1268;59616;-47
2024/03/27 03:18:37;;;;;;;27.00;16.10;;;;;;;-147.86;100.00;8490.71;105190;1263;73169;-48
2024/03/27 03:21:05;;;;;;;24.50;15.30;;;;;;;-147.86;100.00;10804.51;105235;1268;65620;-48
2024/03/27 03:23:33;;;;;;;25.00;15.20;;;;;;;-147.86;100.00;12417.21;105294;1268;72908;-48
2024/03/27 03:26:01;;;;;;;24.70;15.20;;;;;;;-147.86;100.00;13494.00;105211;1266;61757;-48
2024/03/27 03:28:28;;;;;;;22.30;14.80;;;;;;;-147.86;100.00;14680.93;105227;1263;60202;-48
2024/03/27 03:31:02;;;;;;;25.10;15.40;;;;;;;-147.86;100.00;15650.21;105259;1264;73034;-45
2024/03/27 03:33:48;;;;;;;21.90;15.20;;;;;;;-147.86;100.00;14405.08;105153;1266;64180;-45
2024/03/27 03:36:15;;;;;;;20.50;15.00;;;;;;;-147.86;100.00;17316.40;105633;1259;72693;-45
2024/03/27 03:38:42;;;;;;;23.70;15.70;;;;;;;-147.86;100.00;18188.67;105599;1259;60825;-45
2024/03/27 03:41:10;;;;;;;24.90;14.80;;;;;;;-147.86;100.00;19018.26;105603;1256;60406;-45
2024/03/27 03:43:38;;;;;;;20.80;14.60;;;;;;;-147.86;100.00;19607.54;105609;1258;72790;-45
2024/03/27 03:46:04;;;;;;;21.70;14.70;;;;;;;-147.86;100.00;20076.94;105634;1259;65508;-51
2024/03/27 03:48:32;;;;;;;24.70;14.90;;;;;;;-147.86;100.00;20504.73;105726;1257;72878;-47
2024/03/27 03:50:59;;;;;;;23.60;14.80;;;;;;;-147.86;100.00;20716.92;105667;1259;61122;-48
2024/03/27 03:53:25;;;;;;;22.10;14.40;;;;;;;-147.86;100.00;20990.18;105652;1257;60428;-45
2024/03/27 03:55:52;;;;;;;21.60;14.70;;;;;;;-147.86;100.00;21158.75;105602;1259;73952;-46
2024/03/27 03:58:19;;;;;;;24.70;15.30;;;;;;;-147.86;100.00;21210.93;105580;1259;65588;-47
2024/03/27 04:00:50;;;;;;;21.40;15.40;;;;;;;-147.86;100.00;21308.25;105631;1254;72728;-47
2024/03/27 04:03:17;;;;;;;20.20;14.90;;;;;;;-147.86;100.00;20917.20;105668;1259;60568;-47
2024/03/27 04:05:44;;;;;;;24.20;15.10;;;;;;;-147.86;100.00;21374.43;105661;1255;60431;-47
2024/03/27 04:08:11;;;;;;;20.20;14.00;;;;;;;-147.86;100.00;21336.22;105576;1260;73788;-47
2024/03/27 04:10:42;;;;;;;22.30;15.00;;;;;;;-147.86;100.00;21134.11;105638;1258;65461;-51
2024/03/27 04:13:08;;;;;;;22.70;15.20;;;;;;;-147.86;100.00;20544.57;105615;1260;72380;-45
2024/03/27 04:15:39;;;;;;;20.80;15.00;;;;;;;-147.86;100.00;20883.77;105588;1258;60425;-51
2024/03/27 04:18:06;;;;;;;26.30;16.00;;;;;;;-147.86;100.00;20495.47;105551;1254;60526;-47
2024/03/27 04:20:33;;;;;;;21.10;14.20;;;;;;;-147.86;100.00;20969.03;105303;1260;73619;-50
2024/03/27 04:23:00;;;;;;;27.10;16.10;;;;;;;-147.86;100.00;21043.00;105544;1255;65411;-48
2024/03/27 04:25:27;;;;;;;28.50;17.40;;;;;;;-147.86;100.00;20987.33;105507;1260;70419;-48
2024/03/27 04:28:11;;;;;;;26.80;16.50;;;;;;;-147.86;100.00;19247.53;105684;1257;62192;-51
2024/03/27 04:30:38;;;;;;;25.40;16.50;;;;;;;-147.86;100.00;20867.40;105658;1255;60469;-48
2024/03/27 04:33:04;;;;;;;28.20;16.10;;;;;;;-147.86;100.00;20978.36;105651;1257;73695;-50
2024/03/27 04:35:32;;;;;;;23.20;16.20;;;;;;;-147.86;100.00;21069.07;105733;1255;65610;-49
2024/03/27 04:37:58;;;;;;;27.90;16.80;;;;;;;-147.86;100.00;21051.16;105642;1260;72667;-52
2024/03/27 04:40:25;;;;;;;26.90;18.10;;;;;;;-147.86;100.00;20944.83;105646;1254;60447;-47
2024/03/27 04:42:52;;;;;;;25.20;16.50;;;;;;;-147.86;100.00;20769.25;105640;1257;60528;-47
2024/03/27 04:45:19;;;;;;;28.30;17.60;;;;;;;-147.86;100.00;20651.65;105654;1255;73832;-46
2024/03/27 04:47:45;;;;;;;22.00;15.40;;;;;;;-147.86;100.00;20548.50;105659;1260;65381;-46
2024/03/27 04:50:12;;;;;;;25.40;15.60;;;;;;;-147.86;100.00;20464.78;105607;1257;71608;-50
2024/03/27 04:52:39;;;;;;;21.60;15.00;;;;;;;-147.86;100.00;20335.54;105630;1260;61913;-47
2024/03/27 04:55:06;;;;;;;23.60;13.90;;;;;;;-147.86;100.00;20208.23;105566;1256;60773;-47
2024/03/27 04:57:33;;;;;;;21.80;15.20;;;;;;;-147.86;100.00;20004.67;105591;1258;73786;-44
2024/03/27 05:00:00;;;;;;;20.50;15.30;;;;;;;-147.86;100.00;19751.22;105635;1260;65529;-45
2024/03/27 05:02:27;;;;;;;23.40;14.90;;;;;;;-147.86;100.00;19507.98;105610;1260;71555;-46
2024/03/27 05:04:53;;;;;;;20.50;14.60;;;;;;;-147.86;100.00;19362.02;105589;1260;60546;-49
2024/03/27 05:07:20;;;;;;;26.80;14.90;;;;;;;-147.86;100.00;19126.96;105642;1260;61038;-49
2024/03/27 05:09:47;;;;;;;24.40;14.30;;;;;;;-147.86;100.00;18766.18;105637;1260;72420;-49
2024/03/27 05:12:15;;;;;;;26.60;16.20;;;;;;;-147.86;100.00;18221.04;105641;1259;65276;-50
2024/03/27 05:14:42;;;;;;;23.10;14.80;;;;;;;-147.86;100.00;17554.28;105645;1257;72663;-47
2024/03/27 05:17:09;;;;;;;20.40;14.10;;;;;;;-147.86;100.00;17131.38;105616;1260;60754;-46
2024/03/27 05:19:35;;;;;;;18.40;13.80;;;;;;;-147.86;100.00;16843.19;105671;1256;60411;-45
2024/03/27 05:22:03;;;;;;;21.80;13.60;;;;;;;-147.86;100.00;16533.97;105670;1260;73495;-47
2024/03/27 05:24:31;;;;;;;23.10;14.80;;;;;;;-147.86;100.00;15906.00;105633;1259;65517;-48
2024/03/27 05:26:58;;;;;;;22.90;14.70;;;;;;;-147.86;100.00;15713.12;105590;1260;72443;-48
2024/03/27 05:29:24;;;;;;;22.20;14.10;;;;;;;-147.86;100.00;15153.52;105557;1260;61892;-50
2024/03/27 05:31:52;;;;;;;21.20;14.10;;;;;;;-147.86;100.00;14102.04;105597;1258;60785;-48
2024/03/27 05:34:20;;;;;;;25.70;15.50;;;;;;;-147.86;100.00;12966.15;105603;1256;73752;-49
2024/03/27 05:36:47;;;;;;;23.00;14.50;;;;;;;-147.86;100.00;11575.03;105688;1260;65624;-44
2024/03/27 05:39:14;;;;;;;23.50;15.30;;;;;;;-147.86;100.00;10859.56;105612;1257;72954;-44
2024/03/27 05:41:43;;;;;;;25.50;14.80;;;;;;;-147.86;100.00;10344.70;105608;1261;60840;-47
2024/03/27 05:44:10;;;;;;;22.10;14.40;;;;;;;-147.86;100.00;9936.71;105715;1255;60424;-49
2024/03/27 05:46:38;;;;;;;20.80;13.70;;;;;;;-147.86;100.00;9955.70;105633;1260;73831;-47
2024/03/27 05:49:05;;;;;;;19.20;13.70;;;;;;;-147.86;100.00;9694.38;105661;1258;65166;-45
2024/03/27 05:51:33;;;;;;;22.20;15.30;;;;;;;-147.86;100.00;9496.33;105659;1259;72639;-49
2024/03/27 05:54:00;;;;;;;20.90;13.80;;;;;;;-147.86;100.00;8373.80;105619;1268;61656;-45
2024/03/27 05:56:27;;;;;;;19.20;14.40;;;;;;;-147.86;100.00;7537.84;105683;1258;60392;-46
2024/03/27 05:58:55;;;;;;;22.40;13.90;;;;;;;-147.86;100.00;6558.60;105609;1260;73554;-48
2024/03/27 06:01:23;;;;;;;25.10;13.90;;;;;;;-147.86;100.00;5882.63;105750;1260;65300;-48
2024/03/27 06:03:51;;;;;;;23.20;15.00;;;;;;;-147.86;100.00;6177.36;105664;1259;72340;-47
2024/03/27 06:06:18;;;;;;;22.30;13.70;;;;;;;-147.86;100.00;5976.10;105601;1256;61570;-48
2024/03/27 06:08:47;;;;;;;21.50;13.90;;;;;;;-147.86;100.00;5267.00;105705;1260;60470;-46
2024/03/27 06:11:14;;;;;;;22.20;13.10;;;;;;;-147.86;100.00;3819.70;105672;1260;73727;-48
2024/03/27 06:13:41;;;;;;;20.90;13.40;;;;;;;-147.86;100.00;2904.52;105600;1260;65049;-49
2024/03/27 06:16:07;;;;;;;18.80;12.40;;;;;;;-147.86;100.00;2029.53;105697;1261;72642;-47
2024/03/27 06:18:35;;;;;;;21.10;14.10;;;;;;;-147.86;100.00;1424.76;105572;1260;60508;-48
2024/03/27 06:21:03;;;;;;;20.20;13.40;;;;;;;-147.86;100.00;879.73;105713;1255;60520;-46
2024/03/27 06:23:30;;;;;;;22.00;13.90;;;;;;;-147.86;100.00;-85.83;105712;1259;73810;-48
2024/03/27 06:25:58;;;;;;;20.30;13.70;;;;;;;-147.86;100.00;-646.12;105652;1260;64465;-47
2024/03/27 06:28:25;;;;;;;23.10;13.70;;;;;;;-147.86;100.00;-1493.64;105656;1260;71256;-44
2024/03/27 06:30:58;;;;;;;19.20;12.70;;;;;;;-147.86;100.00;-2621.51;105655;1258;62357;-46
2024/03/27 06:33:25;;;;;;;20.20;12.70;;;;;;;-147.86;100.00;-1812.11;105627;1257;60469;-48
2024/03/27 06:35:52;;;;;;;20.60;13.50;;;;;;;-147.86;100.00;1043.06;105587;1259;74245;-49
2024/03/27 06:38:20;;;;;;;20.80;13.20;;;;;;;-147.86;100.00;1807.98;105648;1260;64518;-51
2024/03/27 06:40:49;;;;;;;20.20;13.00;;;;;;;-147.86;100.00;1831.25;105659;1259;71149;-49
2024/03/27 06:43:15;;;;;;;20.80;14.00;;;;;;;-147.86;100.00;1350.38;105778;1259;61837;-48
2024/03/27 06:45:43;;;;;;;22.50;12.90;;;;;;;-147.86;100.00;635.66;105653;1257;60466;-47
2024/03/27 06:48:17;;;;;;;16.60;11.60;;;;;;;-147.86;100.00;-1728.06;105647;1260;73803;-47
2024/03/27 06:50:53;;;;;;;21.10;13.00;;;;;;;-147.86;100.00;-2803.06;105655;1260;65318;-46
2024/03/27 06:53:20;;;;;;;20.90;12.40;;;;;;;-147.86;100.00;-6082.69;105407;1256;72628;-47
2024/03/27 06:55:47;;;;;;;17.00;12.40;;;;;;;-147.86;100.00;-7580.81;105606;1260;60401;-50
2024/03/27 06:58:14;;;;;;;21.80;12.80;;;;;;;-147.86;100.00;-9150.42;105667;1259;60471;-50
2024/03/27 07:00:41;;;;;;;16.80;12.20;;;;;;;-147.86;100.00;-10568.42;105628;1258;73772;-49
2024/03/27 07:03:08;;;;;;;16.10;12.70;;;;;;;-147.86;100.00;-12109.43;105616;1259;65491;-48
2024/03/27 07:05:35;;;;;;;18.90;13.20;;;;;;;-147.86;100.00;-14098.58;105630;1259;72500;-45
2024/03/27 07:08:03;;;;;;;19.00;13.80;;;;;;;-147.86;100.00;-16107.12;105654;1259;60342;-48
2024/03/27 07:10:30;;;;;;;16.90;12.20;;;;;;;-147.86;100.00;-17225.30;105651;1265;60738;-46
2024/03/27 07:12:57;;;;;;;16.00;11.60;;;;;;;-147.86;100.00;-17609.17;105606;1260;73905;-47
2024/03/27 07:15:24;;;;;;;13.80;11.30;;;;;;;-147.86;100.00;-17609.17;105595;1257;65817;-48
2024/03/27 07:17:51;;;;;;;14.40;10.80;;;;;;;-147.86;100.00;-17609.17;105618;1260;74093;-45
2024/03/27 07:20:17;;;;;;;17.40;12.00;;;;;;;-147.86;100.00;-17609.17;105623;1259;61156;-45
2024/03/27 07:22:44;;;;;;;15.70;11.30;;;;;;;-147.86;100.00;-17609.17;105670;1258;61371;-46
2024/03/27 07:25:11;;;;;;;18.20;12.20;;;;;;;-147.86;100.00;-17609.17;105664;1259;74838;-47
2024/03/27 07:27:38;;;;;;;16.30;11.90;;;;;;;-147.86;100.00;-17609.17;105603;1260;64535;-48
2024/03/27 07:30:06;;;;;;;19.90;12.00;;;;;;;-147.86;100.00;-17609.17;105628;1268;72646;-46
2024/03/27 07:32:38;;;;;;;16.50;11.80;;;;;;;-147.86;100.00;-17609.17;105680;1259;61470;-47
2024/03/27 07:35:05;;;;;;;15.00;10.70;;;;;;;-147.86;100.00;-17609.17;105643;1260;61533;-46
2024/03/27 07:37:33;;;;;;;14.00;10.60;;;;;;;-147.86;100.00;-17609.17;105676;1255;75892;-48
2024/03/27 07:40:00;;;;;;;16.00;11.10;;;;;;;-147.86;100.00;-17609.17;105655;1259;66749;-48
2024/03/27 07:42:27;;;;;;;14.60;11.10;;;;;;;-147.86;100.00;-17609.17;105612;1260;73711;-47
2024/03/27 07:44:54;;;;;;;17.70;11.60;;;;;;;-147.86;100.00;-17609.17;105690;1257;61246;-47
2024/03/27 07:47:21;;;;;;;16.20;11.00;;;;;;;-147.86;100.00;-17609.17;105657;1255;61491;-48
2024/03/27 07:49:48;;;;;;;15.30;10.90;;;;;;;-147.86;100.00;-17609.17;105683;1258;76127;-51
2024/03/27 07:52:15;;;;;;;17.70;11.50;;;;;;;-147.86;100.00;-17609.17;105650;1264;64673;-47
2024/03/27 07:54:41;;;;;;;15.30;11.60;;;;;;;-147.86;100.00;-17609.17;105657;1261;72477;-52
2024/03/27 07:57:10;;;;;;;15.90;11.10;;;;;;;-147.86;100.00;-17609.17;105660;1259;61357;-47
2024/03/27 07:59:38;;;;;;;16.90;11.60;;;;;;;-147.86;100.00;-17609.17;105641;1257;61439;-45
2024/03/27 08:02:05;;;;;;;15.40;11.20;;;;;;;-147.86;100.00;-17609.17;105649;1259;75060;-46
2024/03/27 08:04:32;;;;;;;15.30;11.60;;;;;;;-147.86;100.00;-17609.17;105649;1254;66574;-47
2024/03/27 08:06:59;;;;;;;15.70;11.40;;;;;;;-147.86;100.00;-17609.17;105636;1260;73808;-47
2024/03/27 08:09:26;;;;;;;14.00;11.00;;;;;;;-147.86;100.00;-17609.17;105647;1260;61218;-47
2024/03/27 08:11:53;;;;;;;16.70;11.10;;;;;;;-147.86;100.00;-17609.17;105654;1254;61329;-50
2024/03/27 08:14:20;;;;;;;16.10;10.40;;;;;;;-147.86;100.00;-17609.17;105659;1260;76266;-49
2024/03/27 08:16:50;;;;;;;13.60;11.20;;;;;;;-147.86;100.00;-17609.17;105615;1259;65903;-50
2024/03/27 08:19:17;;;;;;;15.40;11.20;;;;;;;-147.86;100.00;-17609.17;105701;1260;73826;-52
2024/03/27 08:21:44;;;;;;;15.30;11.20;;;;;;;-147.86;100.00;-17609.17;105578;1260;61636;-52
2024/03/27 08:24:11;;;;;;;17.40;11.20;;;;;;;-147.86;100.00;-17609.17;105644;1257;61427;-52
2024/03/27 08:26:38;;;;;;;16.60;11.20;;;;;;;-147.86;100.00;-17609.17;105668;1260;74719;-51
2024/03/27 08:29:05;;;;;;;16.30;11.70;;;;;;;-147.86;100.00;-17609.17;105652;1260;66724;-51
2024/03/27 08:31:32;;;;;;;16.50;11.60;;;;;;;-147.86;100.00;-17609.17;105626;1257;72913;-47
2024/03/27 08:33:59;;;;;;;20.40;11.50;;;;;;;-147.86;100.00;-17609.17;105636;1260;61826;-50
2024/03/27 08:36:28;;;;;;;13.20;10.80;;;;;;;-147.86;100.00;-17609.17;105631;1260;61227;-46
2024/03/27 08:39:09;;;;;;;18.30;11.60;;;;;;;-147.86;100.00;-17609.17;105594;1259;75851;-51
2024/03/27 08:41:36;;;;;;;17.00;11.60;;;;;;;-147.86;100.00;-17609.17;105622;1257;66753;-46
2024/03/27 08:44:04;;;;;;;22.50;11.00;;;;;;;-147.86;100.00;-17609.17;105641;1260;74020;-47
2024/03/27 08:46:31;;;;;;;12.40;10.00;;;;;;;-147.86;100.00;-17609.17;105765;1255;61421;-48
2024/03/27 08:48:58;;;;;;;13.80;11.00;;;;;;;-147.86;100.00;-17609.17;105646;1257;61405;-49
2024/03/27 08:51:25;;;;;;;14.30;11.00;;;;;;;-147.86;100.00;-17609.17;105635;1257;75649;-45
2024/03/27 08:53:52;;;;;;;19.60;10.70;;;;;;;-147.86;100.00;-17609.17;105613;1260;65923;-45
2024/03/27 08:56:22;;;;;;;13.00;10.80;;;;;;;-147.86;100.00;-17609.17;105661;1260;73800;-46
2024/03/27 08:58:49;;;;;;;13.10;10.70;;;;;;;-147.86;100.00;-17609.17;105691;1256;61626;-46
2024/03/27 09:01:17;;;;;;;17.10;11.40;;;;;;;-147.86;100.00;-17609.17;105643;1255;61660;-49
2024/03/27 09:03:45;;;;;;;14.20;11.40;;;;;;;-147.86;100.00;-17609.17;105642;1257;75697;-48
2024/03/27 09:06:13;;;;;;;19.80;11.70;;;;;;;-147.86;100.00;-17609.17;105661;1259;65950;-45
2024/03/27 09:08:40;;;;;;;18.10;10.60;;;;;;;-147.86;100.00;-17609.17;105745;1258;71624;-47
2024/03/27 09:11:08;;;;;;;14.30;10.60;;;;;;;-147.86;100.00;-17609.17;105667;1260;61509;-49
2024/03/27 09:13:36;;;;;;;20.70;10.80;;;;;;;-147.86;100.00;-17609.17;105655;1254;61426;-48
2024/03/27 09:16:03;;;;;;;14.70;10.80;;;;;;;-147.86;100.00;-17609.17;105612;1256;74754;-47
2024/03/27 09:18:30;;;;;;;18.20;11.50;;;;;;;-147.86;100.00;-17609.17;105631;1260;63468;-47
2024/03/27 09:20:58;;;;;;;14.30;11.20;;;;;;;-147.86;100.00;-17609.17;105661;1257;73113;-50
2024/03/27 09:23:25;;;;;;;12.80;10.40;;;;;;;-147.86;100.00;-17609.17;105656;1257;61918;-47
2024/03/27 09:25:53;;;;;;;16.70;11.60;;;;;;;-147.86;100.00;-17609.17;105649;1257;61703;-45
2024/03/27 09:28:21;;;;;;;16.50;12.30;;;;;;;-147.86;100.00;-17609.17;105635;1257;75028;-50
2024/03/27 09:30:48;;;;;;;17.70;11.30;;;;;;;-147.86;100.00;-17609.17;105683;1259;66191;-49
2024/03/27 09:33:15;;;;;;;15.00;11.40;;;;;;;-147.86;100.00;-17609.17;105612;1257;74021;-50
2024/03/27 09:35:44;;;;;;;16.40;10.60;;;;;;;-147.86;100.00;-17558.96;105641;1258;61985;-50
2024/03/27 09:38:11;;;;;;;13.60;10.10;;;;;;;-147.86;100.00;-17459.98;105675;1255;61489;-47
2024/03/27 09:40:47;;;;;;;15.90;11.20;;;;;;;-147.86;100.00;-17609.17;105656;1257;73973;-51
2024/03/27 09:43:15;;;;;;;15.80;10.00;;;;;;;-147.86;100.00;-17609.17;105657;1260;64968;-47
2024/03/27 09:45:46;;;;;;;18.10;12.30;;;;;;;-147.86;100.00;-17609.17;105625;1258;72755;-49
2024/03/27 09:48:13;;;;;;;15.50;11.80;;;;;;;-147.86;100.00;-17608.88;105660;1260;61513;-51
2024/03/27 09:50:40;;;;;;;15.50;11.20;;;;;;;-147.86;100.00;-17609.17;105680;1254;61787;-48
2024/03/27 09:53:07;;;;;;;15.10;11.50;;;;;;;-147.86;100.00;-16818.15;105648;1259;75803;-53
2024/03/27 09:55:35;;;;;;;16.00;12.50;;;;;;;-147.86;100.00;-17311.66;105595;1257;66093;-50
2024/03/27 09:58:15;;;;;;;15.50;11.40;;;;;;;-147.86;100.00;-16225.87;105708;1258;73744;-48
2024/03/27 10:00:42;;;;;;;13.80;11.50;;;;;;;-147.86;100.00;-15436.03;105749;1258;61667;-50
2024/03/27 10:03:09;;;;;;;16.90;11.40;;;;;;;-147.86;100.00;-12521.75;105739;1258;61253;-48
2024/03/27 10:05:37;;;;;;;14.40;11.80;;;;;;;-147.86;100.00;-6043.96;105631;1257;75980;-45
2024/03/27 10:08:06;;;;;;;13.70;10.90;;;;;;;-147.86;98.79;941.08;105696;1260;63631;-47
2024/03/27 10:10:33;;;;;;;18.10;11.80;;;;;;;-147.86;96.09;10870.06;105661;1257;74218;-53
2024/03/27 10:13:00;;;;;;;17.70;11.80;;;;;;;-147.86;95.37;18432.81;105639;1260;61386;-49
2024/03/27 10:15:27;;;;;;;16.90;11.40;;;;;;;-147.86;92.91;26410.77;105630;1257;61781;-49
2024/03/27 10:17:54;;;;;;;13.10;10.30;;;;;;;-147.86;89.38;38841.41;105713;1260;74964;-46
2024/03/27 10:20:21;;;;;;;14.80;10.20;;;;;;;-147.86;88.75;44929.99;105707;1259;66138;-53
2024/03/27 10:22:48;;;;;;;16.50;11.20;;;;;;;-147.86;90.05;47125.11;105761;1257;74040;-48
2024/03/27 10:25:15;;;;;;;13.70;11.10;;;;;;;-147.86;89.83;48187.48;105919;1257;61661;-49
2024/03/27 10:27:42;;;;;;;14.50;10.20;;;;;;;-147.86;93.48;48494.08;105951;1254;61564;-48
2024/03/27 10:30:10;;;;;;;17.10;9.70;;;;;;;-147.86;93.90;47981.24;105963;1252;75710;-48
2024/03/27 10:32:38;;;;;;;13.20;10.10;;;;;;;-147.86;95.42;47755.43;105879;1257;66958;-48
2024/03/27 10:35:05;;;;;;;12.80;9.70;;;;;;;-147.86;96.72;46834.70;106016;1254;73991;-48
2024/03/27 10:37:34;;;;;;;11.80;9.50;;;;;;;-147.86;95.79;46723.35;105945;1253;62053;-50
2024/03/27 10:40:02;;;;;;;12.80;8.80;;;;;;;-147.86;95.50;46635.18;106044;1252;61800;-52
2024/03/27 10:42:29;;;;;;;11.10;9.10;;;;;;;-147.86;97.45;46047.43;105963;1251;75811;-48
2024/03/27 10:44:57;;;;;;;14.00;9.40;;;;;;;-147.86;98.30;41957.32;105999;1253;66145;-47
2024/03/27 10:47:27;;;;;;;14.40;9.10;;;;;;;-147.86;96.80;43071.52;106008;1254;73934;-49
2024/03/27 10:49:54;;;;;;;10.50;8.90;;;;;;;-147.86;96.59;43265.73;105983;1256;61602;-46
2024/03/27 10:52:21;;;;;;;12.40;8.80;;;;;;;-147.86;95.27;44371.75;105740;1252;61621;-46
2024/03/27 10:54:48;;;;;;;13.40;8.90;;;;;;;-147.86;94.44;45623.77;105951;1257;75713;-51
2024/03/27 10:57:17;;;;;;;9.70;8.40;;;;;;;-147.86;93.04;46856.62;105974;1256;66815;-50
2024/03/27 10:59:46;;;;;;;9.10;8.00;;;;;;;-147.86;92.68;47584.51;105990;1251;73975;-50
2024/03/27 11:02:13;;;;;;;12.20;8.90;;;;;;;-147.86;93.46;47827.95;105979;1251;61833;-51
2024/03/27 11:04:43;;;;;;;9.90;8.00;;;;;;;-147.86;93.36;47982.02;105946;1251;61439;-49